createdAt,value
2019-03-15T00:01:46.267Z,11.20
2019-03-15T00:04:16.726Z,11.13
2019-03-15T00:06:47.141Z,10.53
2019-03-15T00:09:17.609Z,10.50
2019-03-15T00:11:48.000Z,11.97
2019-03-15T00:14:18.362Z,10.37
2019-03-15T00:16:48.773Z,10.57
2019-03-15T00:19:19.212Z,11.60
2019-03-15T00:21:49.613Z,11.00
2019-03-15T00:24:19.996Z,10.67
2019-03-15T00:26:50.395Z,10.93
2019-03-15T00:29:20.861Z,10.97
2019-03-15T00:31:51.256Z,11.07
2019-03-15T00:34:22.621Z,10.53
2019-03-15T00:36:53.035Z,9.97
2019-03-15T00:39:23.524Z,10.17
2019-03-15T00:41:53.940Z,10.03
2019-03-15T00:44:24.436Z,10.50
2019-03-15T00:46:54.878Z,10.10
2019-03-15T00:49:25.348Z,10.40
2019-03-15T00:51:55.774Z,10.87
2019-03-15T00:54:26.224Z,11.77
2019-03-15T00:56:56.647Z,10.80
2019-03-15T00:59:27.102Z,11.20
2019-03-15T01:01:57.510Z,12.27
2019-03-15T01:04:27.980Z,12.00
2019-03-15T01:06:58.401Z,10.57
2019-03-15T01:09:29.126Z,11.60
2019-03-15T01:11:59.593Z,11.97
2019-03-15T01:14:30.078Z,13.07
2019-03-15T01:17:00.678Z,12.77
2019-03-15T01:19:31.244Z,12.17
2019-03-15T01:22:01.689Z,12.53
2019-03-15T01:24:32.143Z,12.37
2019-03-15T01:27:02.551Z,13.37
2019-03-15T01:29:33.018Z,13.07
2019-03-15T01:32:03.433Z,15.37
2019-03-15T01:34:34.873Z,18.33
2019-03-15T01:37:05.282Z,21.30
2019-03-15T01:39:35.761Z,19.87
2019-03-15T01:42:06.196Z,18.90
2019-03-15T01:44:36.658Z,18.90
2019-03-15T01:47:07.108Z,19.03
2019-03-15T01:49:37.587Z,18.80
2019-03-15T01:52:08.024Z,18.73
2019-03-15T01:54:38.512Z,17.77
2019-03-15T01:57:08.966Z,18.47
2019-03-15T01:59:39.435Z,18.37
2019-03-15T02:02:09.852Z,17.30
2019-03-15T02:04:40.322Z,16.53
2019-03-15T02:07:10.741Z,16.27
2019-03-15T02:09:41.196Z,17.00
2019-03-15T02:12:11.620Z,16.43
2019-03-15T02:14:42.100Z,17.43
2019-03-15T02:17:12.532Z,18.90
2019-03-15T02:19:42.982Z,19.47
2019-03-15T02:22:13.381Z,21.00
2019-03-15T02:24:43.897Z,21.17
2019-03-15T02:27:14.320Z,20.13
2019-03-15T02:29:44.803Z,20.83
2019-03-15T02:32:15.313Z,17.93
2019-03-15T02:34:47.333Z,20.60
2019-03-15T02:37:17.758Z,19.43
2019-03-15T02:39:48.240Z,19.97
2019-03-15T02:42:18.678Z,18.23
2019-03-15T02:44:49.143Z,17.83
2019-03-15T02:47:19.861Z,19.17
2019-03-15T02:49:50.294Z,18.37
2019-03-15T02:52:20.657Z,17.67
2019-03-15T02:54:51.126Z,17.90
2019-03-15T02:57:21.555Z,18.03
2019-03-15T02:59:52.016Z,17.37
2019-03-15T03:02:22.440Z,17.83
2019-03-15T03:04:52.931Z,17.90
2019-03-15T03:07:23.363Z,17.37
2019-03-15T03:09:53.842Z,18.93
2019-03-15T03:12:24.296Z,17.53
2019-03-15T03:14:54.787Z,17.50
2019-03-15T03:17:25.216Z,17.20
2019-03-15T03:19:55.701Z,16.03
2019-03-15T03:22:26.144Z,16.67
2019-03-15T03:24:56.631Z,15.90
2019-03-15T03:27:27.089Z,15.87
2019-03-15T03:29:57.583Z,15.50
2019-03-15T03:32:28.033Z,15.10
2019-03-15T03:34:58.642Z,15.23
2019-03-15T03:37:29.133Z,16.00
2019-03-15T03:40:01.317Z,15.03
2019-03-15T03:42:31.721Z,14.03
2019-03-15T03:45:02.222Z,14.93
2019-03-15T03:47:32.977Z,14.83
2019-03-15T03:50:05.504Z,14.93
2019-03-15T03:52:35.952Z,14.17
2019-03-15T03:55:07.417Z,15.00
2019-03-15T03:57:37.844Z,12.97
2019-03-15T04:00:11.429Z,13.67
2019-03-15T04:02:41.845Z,13.83
2019-03-15T04:05:12.432Z,13.43
2019-03-15T04:07:42.878Z,13.27
2019-03-15T04:10:13.475Z,14.20
2019-03-15T04:12:43.917Z,14.53
2019-03-15T04:15:14.394Z,13.37
2019-03-15T04:17:44.972Z,14.60
2019-03-15T04:20:15.475Z,13.30
2019-03-15T04:22:45.893Z,14.63
2019-03-15T04:25:16.379Z,12.93
2019-03-15T04:27:46.852Z,12.93
2019-03-15T04:30:17.302Z,13.70
2019-03-15T04:32:47.718Z,14.03
2019-03-15T04:35:19.255Z,14.33
2019-03-15T04:37:49.682Z,14.97
2019-03-15T04:40:20.194Z,13.90
2019-03-15T04:42:50.621Z,13.50
2019-03-15T04:45:21.089Z,13.63
2019-03-15T04:47:51.530Z,13.90
2019-03-15T04:50:22.012Z,13.83
2019-03-15T04:52:52.429Z,14.43
2019-03-15T04:55:22.908Z,13.77
2019-03-15T04:57:53.328Z,13.80
2019-03-15T05:00:23.839Z,13.03
2019-03-15T05:02:54.241Z,13.50
2019-03-15T05:05:24.697Z,13.57
2019-03-15T05:07:55.146Z,13.30
2019-03-15T05:10:25.622Z,13.97
2019-03-15T05:12:56.066Z,12.03
2019-03-15T05:15:26.543Z,11.70
2019-03-15T05:17:56.975Z,12.23
2019-03-15T05:20:27.503Z,12.77
2019-03-15T05:22:57.932Z,11.83
2019-03-15T05:25:29.934Z,11.63
2019-03-15T05:28:00.501Z,11.47
2019-03-15T05:30:31.555Z,12.23
2019-03-15T05:33:01.998Z,11.43
2019-03-15T05:35:33.431Z,11.33
2019-03-15T05:38:03.884Z,10.87
2019-03-15T05:40:34.346Z,11.43
2019-03-15T05:43:04.792Z,12.60
2019-03-15T05:45:35.297Z,11.10
2019-03-15T05:48:05.751Z,10.90
2019-03-15T05:50:36.239Z,11.53
2019-03-15T05:53:06.703Z,12.13
2019-03-15T05:55:37.214Z,11.60
2019-03-15T05:58:07.753Z,11.27
2019-03-15T06:00:38.233Z,10.30
2019-03-15T06:03:12.181Z,11.43
2019-03-15T06:05:40.883Z,11.27
2019-03-15T06:08:11.334Z,11.60
2019-03-15T06:10:41.818Z,10.03
2019-03-15T06:13:12.306Z,10.70
2019-03-15T06:15:42.831Z,11.40
2019-03-15T06:18:13.305Z,10.23
2019-03-15T06:20:43.816Z,9.57
2019-03-15T06:23:16.839Z,10.40
2019-03-15T06:25:46.473Z,10.13
2019-03-15T06:28:16.930Z,10.03
2019-03-15T06:30:48.025Z,10.83
2019-03-15T06:33:18.471Z,10.77
2019-03-15T06:35:49.939Z,9.40
2019-03-15T06:38:20.401Z,10.13
2019-03-15T06:40:50.913Z,10.40
2019-03-15T06:43:21.358Z,10.23
2019-03-15T06:45:51.854Z,9.30
2019-03-15T06:48:22.281Z,10.17
2019-03-15T06:50:52.754Z,11.23
2019-03-15T06:53:24.099Z,10.37
2019-03-15T06:55:54.595Z,11.30
2019-03-15T06:58:25.026Z,10.77
2019-03-15T07:00:55.502Z,9.43
2019-03-15T07:03:25.962Z,10.40
2019-03-15T07:05:56.462Z,10.03
2019-03-15T07:08:26.908Z,9.93
2019-03-15T07:10:57.414Z,10.03
2019-03-15T07:13:28.138Z,10.73
2019-03-15T07:15:58.631Z,9.77
2019-03-15T07:18:29.051Z,10.80
2019-03-15T07:20:59.541Z,9.37
2019-03-15T07:23:29.961Z,10.50
2019-03-15T07:26:00.446Z,9.67
2019-03-15T07:28:30.869Z,10.43
2019-03-15T07:31:01.332Z,8.97
2019-03-15T07:33:33.351Z,10.80
2019-03-15T07:36:04.763Z,9.53
2019-03-15T07:38:35.228Z,8.73
2019-03-15T07:41:05.756Z,9.23
2019-03-15T07:43:36.246Z,9.53
2019-03-15T07:46:07.147Z,9.50
2019-03-15T07:48:37.698Z,13.83
2019-03-15T07:51:08.174Z,9.13
2019-03-15T07:53:38.672Z,10.23
2019-03-15T07:56:09.156Z,10.20
2019-03-15T07:58:39.659Z,9.80
2019-03-15T08:01:10.202Z,9.03
2019-03-15T08:03:40.626Z,9.00
2019-03-15T08:06:11.113Z,9.63
2019-03-15T08:08:41.607Z,9.80
2019-03-15T08:11:12.242Z,10.50
2019-03-15T08:13:42.755Z,10.60
2019-03-15T08:16:23.469Z,9.90
2019-03-15T08:18:54.870Z,10.57
2019-03-15T08:21:25.918Z,11.77
2019-03-15T08:23:58.013Z,10.33
2019-03-15T08:26:33.904Z,10.20
2019-03-15T08:29:04.309Z,11.20
2019-03-15T08:31:36.591Z,11.27
2019-03-15T08:34:06.999Z,9.57
2019-03-15T08:36:38.472Z,10.53
2019-03-15T08:39:09.181Z,11.17
2019-03-15T08:41:39.840Z,11.50
2019-03-15T08:44:13.662Z,10.87
2019-03-15T08:46:44.159Z,11.07
2019-03-15T08:49:17.037Z,10.67
2019-03-15T08:51:47.616Z,12.93
2019-03-15T08:54:20.000Z,10.57
2019-03-15T08:56:50.838Z,10.57
2019-03-15T08:59:21.226Z,10.57
2019-03-15T09:01:51.798Z,11.07
2019-03-15T09:04:23.468Z,11.30
2019-03-15T09:06:54.160Z,11.70
2019-03-15T09:09:24.826Z,14.15
2019-03-15T09:11:55.461Z,13.83
2019-03-15T09:14:26.230Z,11.47
2019-03-15T09:16:58.455Z,11.23
2019-03-15T09:19:28.908Z,10.70
2019-03-15T09:22:00.691Z,10.90
2019-03-15T09:24:32.310Z,11.30
2019-03-15T09:27:02.756Z,10.83
2019-03-15T09:29:36.392Z,11.23
2019-03-15T09:32:09.626Z,12.33
2019-03-15T09:34:40.025Z,11.40
2019-03-15T09:37:14.025Z,12.27
2019-03-15T09:39:44.651Z,11.37
2019-03-15T09:42:17.652Z,11.93
2019-03-15T09:44:48.168Z,12.00
2019-03-15T09:47:18.764Z,12.23
2019-03-15T09:49:49.300Z,13.03
2019-03-15T09:52:20.549Z,12.70
2019-03-15T09:54:57.863Z,12.43
2019-03-15T09:57:28.774Z,11.93
2019-03-15T09:59:59.169Z,13.23
2019-03-15T10:02:30.926Z,15.00
2019-03-15T10:05:10.828Z,14.53
2019-03-15T10:07:38.752Z,16.23
2019-03-15T10:10:19.399Z,13.93
2019-03-15T10:13:04.708Z,14.93
2019-03-15T10:15:26.579Z,15.30
2019-03-15T10:18:01.121Z,12.97
2019-03-15T10:20:31.548Z,13.40
2019-03-15T10:23:06.097Z,14.33
2019-03-15T10:25:46.354Z,14.27
2019-03-15T10:28:06.501Z,13.43
2019-03-15T10:30:36.926Z,13.30
2019-03-15T10:33:09.427Z,13.63
2019-03-15T10:35:40.262Z,13.20
2019-03-15T10:38:10.923Z,13.80
2019-03-15T10:40:41.345Z,13.30
2019-03-15T10:43:18.616Z,14.40
2019-03-15T10:45:51.481Z,13.50
2019-03-15T10:52:15.227Z,13.40
2019-03-15T10:54:45.680Z,13.90
2019-03-15T10:57:23.765Z,14.77
2019-03-15T10:59:57.348Z,17.30
2019-03-15T11:02:27.960Z,14.47
2019-03-15T11:04:58.423Z,14.77
2019-03-15T11:07:28.999Z,13.57
2019-03-15T11:09:59.597Z,16.07
2019-03-15T11:12:30.175Z,15.40
2019-03-15T11:15:00.637Z,13.27
2019-03-15T11:17:31.060Z,14.30
2019-03-15T11:20:02.162Z,13.53
2019-03-15T11:22:34.524Z,13.63
2019-03-15T11:25:07.370Z,12.87
2019-03-15T11:27:39.437Z,13.97
2019-03-15T11:30:14.982Z,13.63
2019-03-15T11:32:45.505Z,14.30
2019-03-15T11:35:15.996Z,13.40
2019-03-15T11:37:49.747Z,14.43
2019-03-15T11:40:20.608Z,14.70
2019-03-15T11:42:54.701Z,14.67
2019-03-15T11:45:25.175Z,15.83
2019-03-15T11:48:03.819Z,15.63
2019-03-15T11:50:41.128Z,16.17
2019-03-15T11:53:18.859Z,16.07
2019-03-15T11:55:52.926Z,13.57
2019-03-15T11:58:24.812Z,14.90
2019-03-15T12:00:58.972Z,15.57
2019-03-15T12:03:32.654Z,17.57
2019-03-15T12:06:03.551Z,15.03
2019-03-15T12:08:34.031Z,14.07
2019-03-15T12:11:05.389Z,14.30
2019-03-15T12:13:38.803Z,16.17
2019-03-15T12:16:12.210Z,16.37
2019-03-15T12:18:42.689Z,14.83
2019-03-15T12:21:14.497Z,16.97
2019-03-15T12:23:48.044Z,15.10
2019-03-15T12:26:18.814Z,15.90
2019-03-15T12:28:49.389Z,13.97
2019-03-15T12:31:24.380Z,14.20
2019-03-15T12:33:56.244Z,13.23
2019-03-15T12:36:26.774Z,13.13
2019-03-15T12:38:58.531Z,14.23
2019-03-15T12:41:29.722Z,13.93
2019-03-15T12:44:00.202Z,12.50
2019-03-15T12:46:30.853Z,12.53
2019-03-15T12:49:01.249Z,12.63
2019-03-15T12:51:32.535Z,12.23
2019-03-15T12:54:03.362Z,13.20
2019-03-15T12:56:33.896Z,14.73
2019-03-15T12:59:04.317Z,14.87
2019-03-15T13:01:34.925Z,12.97
2019-03-15T13:04:05.392Z,13.93
2019-03-15T13:06:41.093Z,14.75
2019-03-15T13:09:14.771Z,12.67
2019-03-15T13:11:45.312Z,12.20
2019-03-15T13:14:15.861Z,12.97
2019-03-15T13:16:48.425Z,13.17
2019-03-15T13:19:19.012Z,12.90
2019-03-15T13:21:49.583Z,12.73
2019-03-15T13:24:20.036Z,11.70
2019-03-15T13:26:52.009Z,12.33
2019-03-15T13:29:28.457Z,11.77
2019-03-15T13:31:58.839Z,12.37
2019-03-15T13:34:29.239Z,13.37
2019-03-15T13:36:59.698Z,12.77
2019-03-15T13:39:32.156Z,14.43
2019-03-15T13:42:03.864Z,13.97
2019-03-15T13:44:34.320Z,13.23
2019-03-15T13:47:05.048Z,13.70
2019-03-15T13:49:41.041Z,13.13
2019-03-15T13:52:10.982Z,15.60
2019-03-15T13:54:44.191Z,14.57
2019-03-15T13:57:21.197Z,17.47
2019-03-15T13:59:46.867Z,18.27
2019-03-15T14:02:17.366Z,18.30
2019-03-15T14:04:47.771Z,17.80
2019-03-15T14:07:19.957Z,20.70
2019-03-15T14:09:50.412Z,19.67
2019-03-15T14:12:20.873Z,20.97
2019-03-15T14:14:51.288Z,20.10
2019-03-15T14:17:22.073Z,19.43
2019-03-15T14:19:52.546Z,21.97
2019-03-15T14:22:24.406Z,19.30
2019-03-15T14:24:56.062Z,19.43
2019-03-15T14:27:36.902Z,18.40
2019-03-15T14:29:59.862Z,18.40
2019-03-15T14:32:30.471Z,17.93
2019-03-15T14:35:01.185Z,19.33
2019-03-15T14:37:31.890Z,20.67
2019-03-15T14:40:02.706Z,20.97
2019-03-15T14:42:34.396Z,18.37
2019-03-15T14:45:07.090Z,21.33
2019-03-15T14:47:38.043Z,20.33
2019-03-15T14:50:13.201Z,20.53
2019-03-15T14:52:43.942Z,22.13
2019-03-15T14:55:17.813Z,19.90
2019-03-15T14:57:53.298Z,20.50
2019-03-15T15:00:21.174Z,21.37
2019-03-15T15:02:54.415Z,20.03
2019-03-15T15:05:24.919Z,19.33
2019-03-15T15:07:55.394Z,20.47
2019-03-15T15:10:25.841Z,18.43
2019-03-15T15:12:56.578Z,19.27
2019-03-15T15:15:28.505Z,19.10
2019-03-15T15:17:59.018Z,19.03
2019-03-15T15:20:29.585Z,18.67
2019-03-15T15:23:00.031Z,18.13
2019-03-15T15:25:30.416Z,19.00
2019-03-15T15:28:04.826Z,20.00
2019-03-15T15:30:32.985Z,19.40
2019-03-15T15:33:03.438Z,18.73
2019-03-15T15:35:37.891Z,19.60
2019-03-15T15:38:10.682Z,18.27
2019-03-15T15:40:41.177Z,19.10
2019-03-15T15:43:12.778Z,18.43
2019-03-15T15:45:43.405Z,19.13
2019-03-15T15:48:13.997Z,18.70
2019-03-15T15:50:44.453Z,19.57
2019-03-15T15:53:14.930Z,17.87
2019-03-15T15:55:45.386Z,18.43
2019-03-15T15:58:18.181Z,19.27
2019-03-15T16:00:48.120Z,17.27
2019-03-15T16:03:21.015Z,19.33
2019-03-15T16:05:51.637Z,19.97
2019-03-15T16:08:22.193Z,18.53
2019-03-15T16:10:52.679Z,19.77
2019-03-15T16:13:23.285Z,20.07
2019-03-15T16:15:53.779Z,20.07
2019-03-15T16:18:26.938Z,18.90
2019-03-15T16:20:57.583Z,24.90
2019-03-15T16:23:30.360Z,21.43
2019-03-15T16:26:00.278Z,20.93
2019-03-15T16:28:34.556Z,20.77
2019-03-15T16:31:02.965Z,21.80
2019-03-15T16:33:33.494Z,27.13
2019-03-15T16:36:03.922Z,21.27
2019-03-15T16:38:34.437Z,21.40
2019-03-15T16:41:04.903Z,20.50
2019-03-15T16:43:38.792Z,20.30
2019-03-15T16:46:09.277Z,20.63
2019-03-15T16:48:39.784Z,20.73
2019-03-15T16:51:19.523Z,19.87
2019-03-15T16:53:42.471Z,20.77
2019-03-15T16:56:12.942Z,20.40
2019-03-15T16:58:45.600Z,21.50
2019-03-15T17:01:15.656Z,22.93
2019-03-15T17:03:46.177Z,20.43
2019-03-15T17:06:16.667Z,22.40
2019-03-15T17:08:47.202Z,22.70
2019-03-15T17:11:17.661Z,22.20
2019-03-15T17:13:48.191Z,21.37
2019-03-15T17:16:18.811Z,24.47
2019-03-15T17:18:49.406Z,22.37
2019-03-15T17:21:19.902Z,22.00
2019-03-15T17:23:50.414Z,23.30
2019-03-15T17:26:20.912Z,22.40
2019-03-15T17:28:58.573Z,22.90
2019-03-15T17:31:25.088Z,22.03
2019-03-15T17:33:55.642Z,22.70
2019-03-15T17:36:27.593Z,22.10
2019-03-15T17:38:58.108Z,23.33
2019-03-15T17:41:28.589Z,23.27
2019-03-15T17:44:00.098Z,22.43
2019-03-15T17:46:30.577Z,22.37
2019-03-15T17:49:01.112Z,22.63
2019-03-15T17:51:31.605Z,22.93
2019-03-15T17:54:02.157Z,23.83
2019-03-15T17:56:32.672Z,23.80
2019-03-15T17:59:12.415Z,23.87
2019-03-15T18:01:35.428Z,24.20
2019-03-15T18:04:06.194Z,25.00
2019-03-15T18:06:36.689Z,24.77
2019-03-15T18:09:07.206Z,23.93
2019-03-15T18:11:37.722Z,23.80
2019-03-15T18:14:08.256Z,24.00
2019-03-15T18:16:38.751Z,25.03
2019-03-15T18:19:09.264Z,25.43
2019-03-15T18:21:42.462Z,24.20
2019-03-15T18:24:13.086Z,24.57
2019-03-15T18:26:43.533Z,24.43
2019-03-15T18:29:25.698Z,23.97
2019-03-15T18:31:46.231Z,26.17
2019-03-15T18:34:16.762Z,26.63
2019-03-15T18:36:47.205Z,25.93
2019-03-15T18:39:17.727Z,27.37
2019-03-15T18:41:50.598Z,26.83
2019-03-15T18:44:21.479Z,25.80
2019-03-15T18:46:51.950Z,27.77
2019-03-15T18:49:22.495Z,27.40
2019-03-15T18:51:52.930Z,29.20
2019-03-15T18:54:23.454Z,28.87
2019-03-15T18:56:53.963Z,29.43
2019-03-15T18:59:24.497Z,29.33
2019-03-15T19:01:54.961Z,28.30
2019-03-15T19:04:25.479Z,28.37
2019-03-15T19:06:55.947Z,29.70
2019-03-15T19:09:26.470Z,32.13
2019-03-15T19:11:56.951Z,31.00
2019-03-15T19:14:27.494Z,32.37
2019-03-15T19:16:57.950Z,32.17
2019-03-15T19:19:28.497Z,34.60
2019-03-15T19:21:58.947Z,32.77
2019-03-15T19:24:29.451Z,32.43
2019-03-15T19:26:59.948Z,31.53
2019-03-15T19:29:30.510Z,33.83
2019-03-15T19:32:00.971Z,33.37
2019-03-15T19:34:31.508Z,34.53
2019-03-15T19:37:02.028Z,35.87
2019-03-15T19:39:32.562Z,34.33
2019-03-15T19:42:03.031Z,35.00
2019-03-15T19:44:34.492Z,32.97
2019-03-15T19:47:04.984Z,35.20
2019-03-15T19:49:35.606Z,35.00
2019-03-15T19:52:06.163Z,34.70
2019-03-15T19:54:36.707Z,36.33
2019-03-15T19:57:07.209Z,33.47
2019-03-15T19:59:37.730Z,35.13
2019-03-15T20:02:08.254Z,35.70
2019-03-15T20:04:38.803Z,36.30
2019-03-15T20:07:09.268Z,34.93
2019-03-15T20:09:39.774Z,34.33
2019-03-15T20:12:10.283Z,32.70
2019-03-15T20:14:40.824Z,34.87
2019-03-15T20:17:11.282Z,35.80
2019-03-15T20:19:41.789Z,35.97
2019-03-15T20:22:12.268Z,37.57
2019-03-15T20:24:42.784Z,39.37
2019-03-15T20:27:13.241Z,36.87
2019-03-15T20:29:43.759Z,37.27
2019-03-15T20:32:14.236Z,37.93
2019-03-15T20:34:44.749Z,40.73
2019-03-15T20:37:15.191Z,41.60
2019-03-15T20:39:45.798Z,39.53
2019-03-15T20:42:16.256Z,38.90
2019-03-15T20:44:47.828Z,41.63
2019-03-15T20:47:18.293Z,40.30
2019-03-15T20:49:48.803Z,39.90
2019-03-15T20:52:19.276Z,38.83
2019-03-15T20:54:49.795Z,39.70
2019-03-15T20:57:20.252Z,39.13
2019-03-15T20:59:50.812Z,39.20
2019-03-15T21:02:21.372Z,40.20
2019-03-15T21:04:51.896Z,40.10
2019-03-15T21:07:22.373Z,39.77
2019-03-15T21:09:52.930Z,37.83
2019-03-15T21:12:23.377Z,39.00
2019-03-15T21:14:53.904Z,38.83
2019-03-15T21:17:24.372Z,36.67
2019-03-15T21:19:54.880Z,40.83
2019-03-15T21:22:25.335Z,41.40
2019-03-15T21:24:55.849Z,42.87
2019-03-15T21:27:26.321Z,39.87
2019-03-15T21:29:56.906Z,42.20
2019-03-15T21:32:27.381Z,40.57
2019-03-15T21:34:57.940Z,40.37
2019-03-15T21:37:29.743Z,38.83
2019-03-15T21:40:00.542Z,39.07
2019-03-15T21:42:31.011Z,40.33
2019-03-15T21:45:02.547Z,38.90
2019-03-15T21:47:33.015Z,40.37
2019-03-15T21:50:04.333Z,40.17
2019-03-15T21:52:34.793Z,42.77
2019-03-15T21:55:06.016Z,41.87
2019-03-15T21:57:36.471Z,42.23
2019-03-15T22:00:18.117Z,42.60
2019-03-15T22:02:48.611Z,40.63
2019-03-15T22:05:19.139Z,42.90
2019-03-15T22:07:49.618Z,40.60
2019-03-15T22:10:20.147Z,43.17
2019-03-15T22:12:50.615Z,43.47
2019-03-15T22:15:21.146Z,43.77
2019-03-15T22:17:51.762Z,43.47
2019-03-15T22:20:22.312Z,42.63
2019-03-15T22:22:52.780Z,42.93
2019-03-15T22:25:23.291Z,43.33
2019-03-15T22:27:53.858Z,40.47
2019-03-15T22:30:24.368Z,40.33
2019-03-15T22:32:54.853Z,42.83
2019-03-15T22:35:25.336Z,43.80
2019-03-15T22:37:55.829Z,42.90
2019-03-15T22:40:26.368Z,43.10
2019-03-15T22:42:56.906Z,42.83
2019-03-15T22:45:28.462Z,41.17
2019-03-15T22:47:58.938Z,42.30
2019-03-15T22:50:29.490Z,40.03
2019-03-15T22:53:01.597Z,42.93
2019-03-15T22:55:32.171Z,41.27
2019-03-15T22:58:02.638Z,42.77
2019-03-15T23:00:37.461Z,41.67
2019-03-15T23:03:08.032Z,41.60
2019-03-15T23:05:38.600Z,43.80
2019-03-15T23:08:09.098Z,38.90
2019-03-15T23:10:39.601Z,40.57
2019-03-15T23:13:10.091Z,39.07
2019-03-15T23:15:40.645Z,40.80
2019-03-15T23:18:11.133Z,40.87
2019-03-15T23:20:41.686Z,43.33
2019-03-15T23:23:23.283Z,41.10
2019-03-15T23:25:44.414Z,42.50
2019-03-15T23:28:15.035Z,42.20
2019-03-15T23:30:45.564Z,41.43
2019-03-15T23:33:16.050Z,41.17
2019-03-15T23:35:53.928Z,42.77
2019-03-15T23:38:18.742Z,41.17
2019-03-15T23:40:49.259Z,42.40
2019-03-15T23:43:19.722Z,40.33
2019-03-15T23:45:51.995Z,41.43
2019-03-15T23:48:22.485Z,40.40
2019-03-15T23:50:53.073Z,44.87
2019-03-15T23:53:23.561Z,42.27
2019-03-15T23:55:55.002Z,40.63
2019-03-15T23:58:25.636Z,40.77
